Terminal Aerodrome Forecast
Issued by NWS

Home | Current Version | Previous Version | Text Only | Print | Product List | Glossary On
Versions: 1 2 3 4 5 6 7 8 9 10 11 12 13 14 15 16
000
FTUS42 KGSP 230538
TAFGMU
TAF
KGMU 230538Z 2306/2406 20015G20KT P6SM -RA BKN006 OVC011
      TEMPO 2306/2308 4SM -RA BR OVC010
     FM231100 24013G22KT P6SM SCT025
     FM240000 29009KT P6SM FEW150=

USA.gov is the U.S. government's official web portal to all federal, state and local government web resources and services.